Latest Weather Observations for Wynyard

IDT60801

Issued at 6:32 am EST Friday 23 June 2017 (issued every 30 minutes, with the page automatically refreshed every 10 minutes)

About weather observations | Map of weather stations | Latest weather observations for TAS | Other Formats
Station Details ID: 091107 Name: WYNYARD AIRPORT Lat: -41.00 Lon: 145.73 Height: 12.0 m
Data from the previous 72 hours. | See also: Recent months at Wynyard
Date/Time
EST
Temp
°C
App
Temp
°C
Dew
Point
°C
Rel
Hum
%
Delta-T
°C
Wind Press
QNH
hPa
Press
MSL
hPa
Rain since
9am
mm
Dir  Spd
km/h
Gust
km/h
Spd
kts
Gust
kts
23/06:30am 11.3 8.8 9.7 90 0.8 WNW 13 17 7 9 1012.7 1012.8 3.0
23/06:00am 11.2 9.1 9.8 91 0.7 WNW 11 15 6 8 1013.0 1013.1 3.0
23/05:30am 11.4 8.5 9.8 90 0.8 WNW 15 17 8 9 1013.0 1013.1 3.0
23/05:00am 11.4 7.8 9.8 90 0.8 WNW 19 24 10 13 1013.2 1013.3 3.0
23/04:30am 12.1 7.9 9.7 85 1.2 WNW 22 30 12 16 1013.4 1013.5 3.0
23/04:00am 12.6 7.7 10.1 85 1.3 WNW 26 37 14 20 1013.7 1013.8 3.0
23/03:35am 12.8 7.7 10.5 86 1.2 NW 28 50 15 27 1013.9 1014.0 3.0
23/03:30am 12.8 7.7 10.5 86 1.2 NW 28 43 15 23 1014.0 1014.1 3.0
23/03:12am 12.9 7.5 10.8 87 1.1 NW 30 48 16 26 1014.2 1014.3 3.0
23/03:09am 12.9 7.5 11.0 88 1.0 NW 30 48 16 26 1014.2 1014.3 3.0
23/03:00am 12.9 8.3 11.1 89 0.9 NW 26 44 14 24 1014.3 1014.4 3.0
23/02:43am 12.8 8.7 11.4 91 0.7 NW 24 32 13 17 1014.5 1014.6 3.0
23/02:30am 12.6 8.6 11.7 94 0.5 NW 24 35 13 19 1014.7 1014.8 3.0
23/02:00am 9.5 8.6 9.4 99 0.0 SSW 4 11 2 6 1015.2 1015.3 3.0
23/01:45am 8.5 8.1 8.2 98 0.1 CALM 0 7 0 4 1015.4 1015.5 2.8
23/01:34am 8.3 7.8 8.0 98 0.1 CALM 0 6 0 3 1015.7 1015.8 2.8
23/01:30am 8.3 7.5 8.0 98 0.1 NNE 2 7 1 4 1015.9 1016.0 2.8
23/01:10am 8.0 7.5 7.7 98 0.1 CALM 0 9 0 5 1016.2 1016.3 2.2
23/01:00am 7.9 7.3 7.6 98 0.1 CALM 0 0 0 0 1016.4 1016.5 1.8
23/12:54am 7.9 7.3 7.6 98 0.1 CALM 0 0 0 0 1016.4 1016.5 1.8
23/12:30am 7.7 6.7 7.4 98 0.1 SSE 2 7 1 4 1017.0 1017.0 1.8
23/12:19am 7.5 6.5 7.2 98 0.1 S 2 7 1 4 1017.3 1017.3 1.8
23/12:00am 7.5 5.7 7.2 98 0.1 W 6 7 3 4 1017.8 1017.8 1.8
 
Date/Time
EST
Temp
°C
App
Temp
°C
Dew
Point
°C
Rel
Hum
%
Delta-T
°C
Wind Press
QNH
hPa
Press
MSL
hPa
Rain since
9am
mm
Dir  Spd
km/h
Gust
km/h
Spd
kts
Gust
kts
22/11:33pm 7.6 5.8 7.3 98 0.1 WNW 6 9 3 5 1018.1 1018.1 1.8
22/11:30pm 7.6 5.8 7.3 98 0.1 WNW 6 9 3 5 1018.2 1018.2 1.8
22/11:00pm 7.3 5.5 7.0 98 0.1 SW 6 7 3 4 1018.5 1018.5 1.6
22/10:58pm 7.3 5.5 7.0 98 0.1 WSW 6 7 3 4 1018.6 1018.6 1.6
22/10:30pm 7.4 5.6 7.1 98 0.1 SW 6 7 3 4 1018.9 1018.9 1.6
22/10:14pm 7.5 5.7 7.2 98 0.1 WNW 6 7 3 4 1019.1 1019.1 1.6
22/10:00pm 7.4 5.4 7.1 98 0.1 W 7 9 4 5 1019.5 1019.5 1.6
22/09:30pm 7.1 5.0 6.7 97 0.2 SW 7 9 4 5 1019.7 1019.7 1.6
22/09:00pm 7.0 6.2 6.6 97 0.2 CALM 0 0 0 0 1020.0 1020.0 1.6
22/08:30pm 7.3 6.2 6.9 97 0.2 W 2 6 1 3 1020.3 1020.3 1.6
22/08:25pm 7.3 5.8 6.9 97 0.2 W 4 6 2 3 1020.3 1020.3 1.6
22/08:09pm 7.2 5.3 6.8 97 0.2 WNW 6 9 3 5 1020.5 1020.5 1.6
22/08:07pm 7.1 5.2 6.7 97 0.2 W 6 9 3 5 1020.5 1020.5 1.6
22/08:00pm 7.0 4.1 6.6 97 0.2 WSW 11 19 6 10 1020.6 1020.6 1.6
22/07:41pm 7.3 6.2 6.9 97 0.2 S 2 6 1 3 1020.4 1020.4 1.6
22/07:30pm 7.5 5.5 6.9 96 0.3 S 7 9 4 5 1020.6 1020.6 1.6
22/07:19pm 7.7 5.9 7.1 96 0.3 S 6 7 3 4 1020.7 1020.7 1.6
22/07:00pm 8.3 7.0 7.7 96 0.3 S 4 7 2 4 1020.9 1020.9 1.6
22/06:30pm 8.2 6.5 7.4 95 0.4 SW 6 7 3 4 1021.1 1021.1 0.6
22/06:19pm 8.3 7.3 7.5 95 0.4 SSW 2 7 1 4 1021.2 1021.2 0.0
22/06:00pm 8.4 7.8 7.5 94 0.4 CALM 0 0 0 0 1021.3 1021.3 0.0
22/05:30pm 8.4 7.8 7.3 93 0.5 CALM 0 0 0 0 1021.5 1021.5 0.0
22/05:00pm 8.4 6.4 7.3 93 0.5 SSE 7 9 4 5 1021.9 1021.9 0.0
22/04:30pm 8.9 8.3 7.2 89 0.8 CALM 0 0 0 0 1022.1 1022.1 0.0
22/04:00pm 9.0 8.3 7.1 88 0.9 CALM 0 0 0 0 1022.4 1022.4 0.0
22/03:34pm 9.1 8.5 7.2 88 0.9 CALM 0 2 0 1 1022.7 1022.7 0.0
22/03:30pm 9.2 8.6 7.3 88 0.9 CALM 0 2 0 1 1022.7 1022.7 0.0
22/03:15pm 9.4 7.6 7.0 85 1.1 SSW 6 7 3 4 1022.8 1022.8 0.0
22/03:00pm 9.6 8.4 6.5 81 1.4 S 2 6 1 3 1022.7 1022.7 0.0
22/02:30pm 10.3 8.1 5.5 72 2.2 SE 6 9 3 5 1023.0 1023.0 0.0
22/02:00pm 10.7 9.3 5.5 70 2.4 WNW 2 7 1 4 1023.4 1023.4 0.0
22/01:30pm 10.3 7.3 4.2 66 2.7 NNE 9 15 5 8 1024.0 1024.0 0.0
22/01:00pm 10.4 7.7 3.7 63 2.9 NE 7 9 4 5 1024.5 1024.5 0.0
22/12:30pm 10.6 8.0 3.4 61 3.1 NNE 6 11 3 6 1024.9 1024.9 0.0
22/12:00pm 10.1 8.7 3.4 63 2.9 CALM 0 6 0 3 1025.6 1025.6 0.0
22/11:30am 9.3 7.8 2.9 64 2.7 CALM 0 0 0 0 1026.3 1026.3 0.0
22/11:00am 7.9 5.0 4.8 81 1.4 WNW 9 11 5 6 1026.8 1026.8 0.0
22/10:30am 6.5 3.3 3.3 80 1.3 NW 9 13 5 7 1027.1 1027.1 0.0
22/10:00am 5.8 2.3 3.3 84 1.0 WNW 11 13 6 7 1027.3 1027.3 0.0
22/09:30am 4.4 1.1 2.6 88 0.7 WNW 9 13 5 7 1027.3 1027.3 0.0
22/09:00am 2.8 -1.0 1.8 93 0.4 WNW 11 13 6 7 1027.3 1027.3 0.0
22/08:30am 1.6 -2.3 0.9 95 0.3 WNW 11 13 6 7 1027.6 1027.6 0.0
22/08:00am 0.1 -4.1 -0.6 95 0.3 WNW 11 13 6 7 1027.6 1027.6 0.0
22/07:30am 1.1 -3.3 0.2 94 0.3 WNW 13 13 7 7 1027.6 1027.6 0.0
22/07:00am 1.6 -2.8 0.6 93 0.4 WNW 13 15 7 8 1027.6 1027.6 0.0
22/06:30am 2.6 -1.3 1.3 91 0.5 WNW 11 13 6 7 1027.6 1027.6 0.0
22/06:00am 3.3 -0.5 1.7 89 0.6 WNW 11 13 6 7 1027.6 1027.6 0.0
22/05:30am 4.4 0.4 2.6 88 0.7 WNW 13 15 7 8 1027.6 1027.6 0.0
22/05:00am 4.5 0.9 2.7 88 0.7 WNW 11 15 6 8 1027.4 1027.4 0.0
22/04:30am 4.3 0.7 2.7 89 0.6 WNW 11 13 6 7 1027.6 1027.6 0.0
22/04:00am 4.3 1.0 2.7 89 0.6 WNW 9 11 5 6 1027.7 1027.7 0.0
22/03:30am 4.1 0.8 2.6 90 0.6 WNW 9 11 5 6 1027.7 1027.7 0.0
22/03:00am 3.9 1.0 2.6 91 0.5 WNW 7 9 4 5 1028.1 1028.1 0.0
22/02:30am 3.8 0.1 2.5 91 0.5 WNW 11 13 6 7 1028.3 1028.3 0.0
22/02:00am 3.5 0.2 2.6 94 0.4 WNW 9 11 5 6 1028.1 1028.1 0.0
22/01:30am 2.8 -0.6 1.9 94 0.4 W 9 11 5 6 1028.2 1028.2 0.0
22/01:00am 2.4 -1.0 1.7 95 0.3 W 9 9 5 5 1028.4 1028.4 0.0
22/12:30am 2.3 -1.1 1.6 95 0.3 WNW 9 11 5 6 1028.6 1028.6 0.0
22/12:00am 1.8 -2.1 1.1 95 0.3 W 11 13 6 7 1028.9 1028.9 0.0
 
Date/Time
EST
Temp
°C
App
Temp
°C
Dew
Point
°C
Rel
Hum
%
Delta-T
°C
Wind Press
QNH
hPa
Press
MSL
hPa
Rain since
9am
mm
Dir  Spd
km/h
Gust
km/h
Spd
kts
Gust
kts
21/11:30pm 1.0 -3.0 0.4 96 0.2 W 11 13 6 7 1029.2 1029.2 0.0
21/11:00pm 0.0 -4.2 -0.7 95 0.2 WNW 11 13 6 7 1029.2 1029.2 0.0
21/10:30pm 1.1 -2.5 0.4 95 0.3 W 9 11 5 6 1029.3 1029.3 0.0
21/10:00pm 1.3 -2.7 0.4 94 0.3 W 11 13 6 7 1029.4 1029.4 0.0
21/09:30pm 2.5 -1.0 1.3 92 0.5 WNW 9 13 5 7 1029.3 1029.3 0.0
21/09:00pm 2.6 -1.7 1.3 91 0.5 WNW 13 15 7 8 1029.1 1029.1 0.0
21/08:30pm 3.8 0.2 2.8 93 0.4 NW 11 13 6 7 1028.9 1028.9 0.0
21/08:00pm 2.8 -1.5 1.0 88 0.7 WNW 13 15 7 8 1028.9 1028.9 0.0
21/07:30pm 5.0 1.1 3.2 88 0.7 NW 13 15 7 8 1029.0 1029.0 0.0
21/07:00pm 3.9 0.1 1.8 86 0.8 W 11 13 6 7 1028.7 1028.7 0.0
21/06:30pm 4.3 0.8 1.3 81 1.2 WSW 9 13 5 7 1028.6 1028.6 0.0
21/06:00pm 5.0 1.3 2.4 83 1.0 SW 11 15 6 8 1028.4 1028.4 0.0
21/05:30pm 5.9 2.2 2.5 79 1.4 SW 11 13 6 7 1028.3 1028.3 0.0
21/05:00pm 6.8 3.1 2.3 73 1.8 SW 11 15 6 8 1028.1 1028.1 0.0
21/04:30pm 8.9 5.0 3.3 68 2.4 SSW 13 22 7 12 1027.9 1027.9 0.0
21/04:00pm 8.8 5.6 2.8 66 2.5 SW 9 13 5 7 1027.8 1027.8 0.0
21/03:30pm 10.2 6.2 3.0 61 3.1 SW 13 17 7 9 1027.6 1027.6 0.0
21/03:00pm 9.7 6.1 3.0 63 2.9 SSW 11 17 6 9 1027.4 1027.4 0.0
21/02:30pm 9.9 6.3 3.2 63 2.9 SSW 11 17 6 9 1027.1 1027.1 0.0
21/02:00pm 10.0 4.9 3.3 63 2.9 SSW 19 28 10 15 1026.9 1026.9 0.0
21/01:30pm 10.1 6.1 2.7 60 3.2 SSW 13 17 7 9 1026.7 1026.7 0.0
21/01:00pm 10.7 5.5 3.3 60 3.2 SW 20 30 11 16 1026.7 1026.7 0.0
21/12:30pm 10.4 6.1 3.4 62 3.1 SW 15 22 8 12 1026.8 1026.8 0.0
21/12:00pm 10.6 7.2 3.9 63 2.9 SSW 11 19 6 10 1027.0 1027.0 0.0
21/11:30am 9.9 5.7 3.9 66 2.6 SSW 15 20 8 11 1027.2 1027.2 0.0
21/11:00am 10.4 7.0 4.1 65 2.8 SW 11 17 6 9 1027.4 1027.4 0.0
21/10:30am 10.1 7.4 5.7 74 2.0 W 9 13 5 7 1027.4 1027.4 0.0
21/10:00am 9.1 6.0 5.5 78 1.6 W 11 15 6 8 1027.2 1027.2 0.0
21/09:30am 8.0 4.5 5.3 83 1.2 WNW 13 17 7 9 1026.8 1026.8 0.0
21/09:00am 6.0 3.3 5.4 96 0.3 W 9 13 5 7 1026.3 1026.3 3.2
21/08:30am 4.0 0.5 3.4 96 0.2 W 11 13 6 7 1026.1 1026.1 3.2
21/08:00am 2.7 -0.7 2.1 96 0.2 W 9 9 5 5 1025.5 1025.5 3.2
21/07:30am 2.7 -1.4 2.1 96 0.2 W 13 15 7 8 1025.1 1025.1 3.2
21/07:00am 2.3 -0.8 1.3 93 0.4 W 7 9 4 5 1024.5 1024.5 3.2
21/06:30am 3.6 0.7 2.4 92 0.5 W 7 13 4 7 1023.8 1023.8 3.2
21/06:00am 3.7 -0.1 1.9 88 0.7 W 11 13 6 7 1023.4 1023.4 3.2
21/05:30am 5.0 1.8 3.0 87 0.8 WSW 9 11 5 6 1022.9 1022.9 3.2
21/05:00am 5.7 1.7 3.0 83 1.1 W 13 19 7 10 1022.5 1022.5 3.2
21/04:30am 5.6 0.9 3.1 84 1.0 W 17 19 9 10 1022.2 1022.2 3.2
21/04:00am 6.2 2.4 3.7 84 1.1 WNW 13 17 7 9 1021.8 1021.8 3.2
21/03:30am 7.9 3.8 4.3 78 1.6 WNW 15 22 8 12 1021.5 1021.5 3.2
21/03:00am 7.4 3.7 4.7 83 1.2 WNW 13 20 7 11 1021.2 1021.2 3.2
21/02:30am 8.1 3.4 5.0 81 1.4 W 19 26 10 14 1020.9 1020.9 3.2
21/02:00am 8.3 3.9 4.9 79 1.5 W 17 26 9 14 1020.4 1020.4 3.2
21/01:30am 8.8 3.9 5.2 78 1.6 W 20 30 11 16 1020.0 1020.0 3.2
21/01:00am 8.9 4.1 5.5 79 1.5 W 20 28 11 15 1019.7 1019.7 3.2
21/12:30am 9.6 4.1 6.1 79 1.6 WSW 24 35 13 19 1019.5 1019.5 3.2
21/12:00am 9.8 3.7 6.5 80 1.5 WSW 28 37 15 20 1019.5 1019.5 3.2
 
Date/Time
EST
Temp
°C
App
Temp
°C
Dew
Point
°C
Rel
Hum
%
Delta-T
°C
Wind Press
QNH
hPa
Press
MSL
hPa
Rain since
9am
mm
Dir  Spd
km/h
Gust
km/h
Spd
kts
Gust
kts
20/11:30pm 9.8 4.1 6.7 81 1.5 WSW 26 35 14 19 1019.3 1019.3 3.2
20/11:00pm 10.0 4.4 7.1 82 1.4 WSW 26 35 14 19 1019.0 1019.0 3.2
20/10:30pm 10.3 5.6 7.7 84 1.2 WSW 22 33 12 18 1018.6 1018.6 3.2
20/10:00pm 10.9 5.1 8.1 83 1.4 WSW 28 43 15 23 1018.2 1018.2 3.2
20/09:30pm 11.3 4.9 8.5 83 1.4 WSW 32 52 17 28 1018.0 1018.0 3.2
20/09:22pm 11.7 3.0 8.6 81 1.5 WSW 44 65 24 35 1018.0 1018.0 3.2
20/09:19pm 11.8 2.7 8.6 81 1.6 WSW 46 65 25 35 1018.0 1018.0 3.2
20/09:18pm 11.9 3.4 9.3 84 1.3 WSW 44 65 24 35 1018.0 1018.0 3.2
20/09:11pm 12.6 4.6 10.5 87 1.1 W 43 63 23 34 1017.7 1017.7 3.2
20/09:00pm 13.4 7.3 11.6 89 1.0 WNW 35 48 19 26 1017.1 1017.1 1.2
20/08:48pm 13.9 6.9 11.4 85 1.3 NW 39 54 21 29 1016.7 1016.8 0.6
20/08:30pm 14.0 7.0 11.3 84 1.4 NW 39 57 21 31 1016.7 1016.8 0.4
20/08:26pm 14.0 7.4 11.3 84 1.4 NW 37 56 20 30 1016.8 1016.9 0.4
20/08:19pm 14.0 7.8 11.5 85 1.3 NW 35 48 19 26 1017.0 1017.0 0.4
20/08:04pm 13.6 8.0 11.5 87 1.1 WNW 32 44 17 24 1017.2 1017.2 0.4
20/08:00pm 13.9 7.6 11.2 84 1.4 NW 35 52 19 28 1017.3 1017.3 0.0
20/07:41pm 14.0 8.3 11.3 84 1.4 NW 32 56 17 30 1017.5 1017.5 0.0
20/07:30pm 14.0 7.7 11.2 83 1.5 NW 35 48 19 26 1017.5 1017.5 0.0
20/07:00pm 14.1 7.8 10.9 81 1.7 NW 35 54 19 29 1017.9 1017.9 0.0
20/06:43pm 13.9 8.5 10.9 82 1.6 NW 30 50 16 27 1017.9 1017.9 0.0
20/06:30pm 13.9 8.9 10.9 82 1.6 NW 28 39 15 21 1018.0 1018.0 0.0
20/06:19pm 13.7 8.7 10.9 83 1.5 NW 28 41 15 22 1018.1 1018.1 0.0
20/06:11pm 13.7 8.3 10.9 83 1.5 NW 30 48 16 26 1018.2 1018.2 0.0
20/06:00pm 13.7 9.1 11.0 84 1.4 NW 26 41 14 22 1018.2 1018.2 0.0
20/05:35pm 13.4 9.6 11.1 86 1.2 NW 22 33 12 18 1018.1 1018.1 0.0
20/05:32pm 13.4 9.6 11.1 86 1.2 NW 22 33 12 18 1018.1 1018.1 0.0
20/05:30pm 13.4 9.6 11.1 86 1.2 NW 22 33 12 18 1018.2 1018.2 0.0
20/05:00pm 13.2 9.3 10.9 86 1.2 WNW 22 30 12 16 1018.6 1018.6 0.0
20/04:58pm 13.2 9.3 10.9 86 1.2 NW 22 30 12 16 1018.6 1018.6 0.0
20/04:44pm 13.0 9.1 10.7 86 1.2 WNW 22 32 12 17 1018.7 1018.7 0.0
20/04:30pm 13.1 8.8 10.8 86 1.2 NW 24 33 13 18 1018.7 1018.7 0.0
20/04:10pm 13.2 8.9 10.7 85 1.3 NW 24 33 13 18 1019.0 1019.0 0.0
20/04:00pm 13.2 8.1 10.7 85 1.3 NW 28 39 15 21 1019.0 1019.0 0.0
20/03:30pm 13.1 7.6 10.6 85 1.3 NW 30 39 16 21 1019.2 1019.2 0.0
20/03:00pm 13.7 8.6 10.5 81 1.7 NW 28 41 15 22 1019.4 1019.4 0.0
20/02:30pm 13.6 8.4 10.2 80 1.8 NW 28 44 15 24 1019.5 1019.5 0.0
20/02:00pm 13.7 8.4 9.9 78 2.0 NW 28 41 15 22 1019.8 1019.8 0.0
20/01:30pm 14.0 8.4 10.0 77 2.1 NW 30 41 16 22 1020.0 1020.0 0.0
20/01:00pm 14.0 8.0 10.0 77 2.1 NW 32 46 17 25 1020.4 1020.4 0.0
20/12:30pm 14.2 8.6 10.0 76 2.2 NW 30 46 16 25 1021.0 1021.0 0.0
20/12:00pm 14.0 7.7 9.6 75 2.3 NW 33 48 18 26 1021.5 1021.5 0.0
20/11:55am 14.0 8.6 9.4 74 2.4 NW 28 48 15 26 1021.6 1021.6 0.0
20/11:30am 14.4 8.8 10.0 75 2.3 NW 30 41 16 22 1022.0 1022.0 0.0
20/11:00am 14.1 8.4 9.7 75 2.3 NW 30 44 16 24 1022.5 1022.5 0.0
20/10:30am 14.1 9.0 10.7 80 1.8 NW 28 41 15 22 1022.7 1022.7 0.0
20/10:25am 14.1 9.1 10.9 81 1.7 NW 28 46 15 25 1022.7 1022.7 0.0
20/10:00am 14.0 9.1 11.3 84 1.4 NW 28 43 15 23 1023.0 1023.0 0.0
20/09:30am 13.7 9.6 11.6 87 1.1 NW 24 33 13 18 1023.0 1023.0 0.0
20/09:00am 13.7 10.5 11.8 88 1.0 NW 20 30 11 16 1023.0 1023.0 1.2
20/08:30am 13.4 10.3 11.6 89 1.0 NW 19 28 10 15 1023.3 1023.3 1.2
20/08:00am 13.1 9.8 11.7 91 0.7 NW 20 28 11 15 1023.5 1023.5 1.2
20/07:30am 12.1 9.8 11.9 99 0.1 WNW 15 24 8 13 1023.5 1023.5 1.2
20/07:00am 9.6 8.2 9.5 99 0.0 SW 7 11 4 6 1023.6 1023.6 1.2
20/06:54am 9.3 8.8 9.2 99 0.0 SSW 2 7 1 4 1023.6 1023.6 1.2
20/06:35am 9.1 8.9 9.0 99 0.0 CALM 0 0 0 0 1023.7 1023.7 1.2

Other Formats:

Comma delimited format used in spreadsheet applications
http://www.bom.gov.au/fwo/IDT60801/IDT60801.95957.axf

JavaScript Object Notation format (JSON) in row-major order
http://www.bom.gov.au/fwo/IDT60801/IDT60801.95957.json